Time;durP1;ratioP1;P1;durP2;ratioP2;P2;SDS_P1;SDS_P2;PMS_P1;PMS_P2;Temp;Humidity;BMP_temperature;BMP_pressure;BME280_temperature;BME280_humidity;BME280_pressure;Samples;Min_cycle;Max_cycle;Signal;HPM_P1;HPM_P2
2023/04/20 05:26:37;;;;;;;14.70;7.43;;;;;;;-0.73;89.54;96320.75;2083662;28;20948;-59
2023/04/20 05:27:38;;;;;;;11.15;6.35;;;;;;;-0.71;88.96;96307.91;2081767;28;20224;-59
2023/04/20 06:59:43;;;;;;;15.65;5.95;;;;;;;6.65;69.63;96282.09;2083445;28;20561;-59
2023/04/20 07:01:43;;;;;;;17.58;6.00;;;;;;;6.80;68.19;96297.13;2084704;28;20569;-59
2023/04/20 07:02:49;;;;;;;9.45;5.13;;;;;;;6.79;66.84;96289.38;2083180;28;20212;-59
2023/04/20 07:03:51;;;;;;;8.50;4.88;;;;;;;6.96;67.58;96291.41;2082454;28;20202;-59
2023/04/20 07:04:59;;;;;;;11.63;6.43;;;;;;;7.02;67.62;96296.34;2080933;28;20641;-59
2023/04/20 07:06:01;;;;;;;19.67;5.70;;;;;;;6.88;66.93;96296.00;2074647;28;20208;-59
2023/04/20 07:07:02;;;;;;;14.93;6.38;;;;;;;6.67;66.74;96295.88;2074780;28;20199;-59
2023/04/20 07:08:04;;;;;;;21.05;6.32;;;;;;;6.43;68.42;96292.38;2073140;28;20193;-59
2023/04/20 07:09:07;;;;;;;15.38;6.10;;;;;;;6.42;68.54;96299.28;2074419;28;20231;-59
2023/04/20 07:10:11;;;;;;;22.52;5.55;;;;;;;6.67;67.82;96295.88;2074437;28;20708;-59
2023/04/20 07:11:12;;;;;;;15.85;6.40;;;;;;;6.16;68.91;96293.22;2074455;28;20239;-59
2023/04/20 07:12:14;;;;;;;10.77;6.03;;;;;;;6.76;68.40;96290.34;2070963;28;20223;-59
2023/04/20 07:13:16;;;;;;;15.23;6.72;;;;;;;7.17;66.90;96287.16;2073961;28;20285;-59
2023/04/20 07:14:17;;;;;;;17.58;5.57;;;;;;;7.32;66.29;96290.94;2073357;28;20677;-59
2023/04/20 07:15:19;;;;;;;22.20;6.30;;;;;;;7.29;65.17;96284.13;2073481;28;20225;-58
2023/04/20 07:16:20;;;;;;;21.55;6.47;;;;;;;6.91;65.93;96286.38;2072997;28;20211;-59
2023/04/20 07:17:22;;;;;;;11.10;6.05;;;;;;;7.18;65.14;96286.28;2074754;28;20587;-59
2023/04/20 07:18:23;;;;;;;23.80;6.55;;;;;;;7.01;65.88;96286.91;2074993;28;20212;-59
2023/04/20 07:19:25;;;;;;;17.73;6.13;;;;;;;7.09;66.89;96281.41;2073692;28;20285;-59
2023/04/20 07:20:26;;;;;;;11.88;6.20;;;;;;;7.67;65.74;96287.00;2072177;28;20229;-59
2023/04/20 07:21:29;;;;;;;13.30;5.97;;;;;;;7.37;66.27;96283.81;2073457;28;20304;-59
2023/04/20 07:22:31;;;;;;;17.00;7.30;;;;;;;7.52;66.03;96279.81;2074052;28;20550;-59
2023/04/20 07:23:32;;;;;;;17.05;5.75;;;;;;;6.77;67.11;96276.47;2073561;28;20288;-59
2023/04/20 07:24:34;;;;;;;20.83;5.75;;;;;;;7.18;66.01;96276.72;2073992;28;20648;-59
2023/04/20 07:25:35;;;;;;;14.35;6.03;;;;;;;7.28;65.39;96276.41;2074355;28;20320;-59
2023/04/20 07:26:37;;;;;;;17.63;6.45;;;;;;;7.03;66.39;96269.50;2072855;28;20208;-59
2023/04/20 07:27:39;;;;;;;17.67;5.85;;;;;;;6.88;66.65;96270.88;2074495;28;20212;-59
2023/04/20 07:28:41;;;;;;;12.60;5.65;;;;;;;7.43;66.06;96256.78;2072747;28;20213;-59
2023/04/20 07:29:42;;;;;;;14.70;6.82;;;;;;;7.72;64.94;96272.97;2071961;28;20201;-59
2023/04/20 07:30:44;;;;;;;16.45;6.93;;;;;;;7.99;64.38;96273.66;2072098;28;20225;-59
2023/04/20 07:31:45;;;;;;;12.05;5.85;;;;;;;7.15;65.49;96266.44;2072945;28;20186;-58
2023/04/20 07:32:47;;;;;;;13.95;6.00;;;;;;;7.43;65.60;96269.78;2074857;28;20194;-58
2023/04/20 07:33:49;;;;;;;10.30;6.38;;;;;;;8.04;64.07;96269.09;2074529;28;20217;-58
2023/04/20 07:34:50;;;;;;;28.48;6.25;;;;;;;7.66;64.06;96268.88;2074125;28;20317;-59
2023/04/20 07:35:52;;;;;;;15.75;6.10;;;;;;;7.16;64.69;96273.34;2072651;28;20221;-59
2023/04/20 07:36:53;;;;;;;28.50;7.05;;;;;;;6.61;67.49;96278.75;2073437;28;20204;-58
2023/04/20 07:37:54;;;;;;;17.75;6.25;;;;;;;6.64;67.17;96280.38;2074606;28;20716;-58
2023/04/20 07:38:56;;;;;;;14.98;6.72;;;;;;;6.02;69.01;96279.88;2072964;28;20193;-59
2023/04/20 07:39:57;;;;;;;17.55;7.60;;;;;;;6.16;70.34;96285.44;2072821;28;20228;-59
2023/04/20 07:40:59;;;;;;;12.00;6.47;;;;;;;6.76;68.57;96269.59;2074975;28;20200;-59
2023/04/20 07:42:02;;;;;;;13.98;7.85;;;;;;;7.16;67.99;96282.88;2070127;28;20249;-59
2023/04/20 07:43:04;;;;;;;15.25;6.20;;;;;;;7.21;66.22;96280.13;2074257;28;20665;-61
2023/04/20 07:44:05;;;;;;;22.70;7.65;;;;;;;6.68;67.45;96282.00;2073426;28;20198;-60
2023/04/20 07:45:09;;;;;;;14.35;6.43;;;;;;;6.82;67.05;96281.53;2070828;28;20254;-61
2023/04/20 07:46:18;;;;;;;17.98;6.60;;;;;;;7.26;66.92;96278.19;2072238;28;20522;-61
2023/04/20 07:47:20;;;;;;;17.45;7.43;;;;;;;7.43;66.67;96283.59;2072813;28;20704;-61
2023/04/20 07:48:22;;;;;;;20.88;6.55;;;;;;;7.86;65.65;96273.31;2072869;28;20198;-61
2023/04/20 07:49:24;;;;;;;12.95;6.70;;;;;;;7.15;66.86;96287.22;2070549;28;20213;-61
2023/04/20 07:50:26;;;;;;;11.35;6.90;;;;;;;6.83;67.68;96278.88;2073286;28;20232;-60
2023/04/20 07:51:29;;;;;;;17.88;6.57;;;;;;;7.28;66.89;96281.59;2071669;28;20198;-60
2023/04/20 07:52:30;;;;;;;22.75;8.32;;;;;;;7.11;67.22;96267.47;2074347;28;20883;-60
2023/04/20 07:53:34;;;;;;;15.27;6.65;;;;;;;7.59;66.87;96277.81;2077307;28;20205;-61
2023/04/20 07:54:35;;;;;;;11.07;6.57;;;;;;;7.98;66.24;96271.97;2072160;28;20204;-61
2023/04/20 07:55:37;;;;;;;9.93;6.25;;;;;;;8.70;64.93;96275.94;2069533;28;20693;-61
2023/04/20 07:56:38;;;;;;;12.60;6.90;;;;;;;9.17;64.01;96272.16;2071774;28;20201;-61
2023/04/20 07:57:41;;;;;;;14.70;6.45;;;;;;;9.60;62.30;96272.81;2072720;28;20198;-61
2023/04/20 07:58:42;;;;;;;14.48;7.05;;;;;;;9.71;61.57;96267.06;2072762;28;20409;-61
2023/04/20 07:59:44;;;;;;;15.10;6.68;;;;;;;9.77;61.50;96260.72;2072271;28;20228;-61
2023/04/20 08:00:46;;;;;;;13.40;6.55;;;;;;;9.78;61.84;96265.03;2073090;28;20280;-61
2023/04/20 08:01:49;;;;;;;8.60;6.20;;;;;;;10.11;60.86;96270.38;2073901;28;20723;-61
2023/04/20 08:02:50;;;;;;;11.38;5.70;;;;;;;10.17;60.26;96268.38;2074513;28;20696;-61
2023/04/20 08:03:54;;;;;;;12.00;6.43;;;;;;;10.16;60.15;96258.88;2074505;28;20223;-61
2023/04/20 08:04:56;;;;;;;10.80;6.82;;;;;;;10.11;60.46;96267.78;2073686;28;20264;-61
2023/04/20 08:05:58;;;;;;;15.05;5.70;;;;;;;9.56;59.11;96270.41;2073865;28;20720;-61
2023/04/20 08:07:00;;;;;;;24.23;7.45;;;;;;;9.10;60.64;96273.34;2073436;28;20626;-61
2023/04/20 08:08:01;;;;;;;19.13;7.10;;;;;;;8.69;62.48;96273.41;2073502;28;20668;-61
2023/04/20 08:09:03;;;;;;;12.90;6.30;;;;;;;8.85;63.28;96268.38;2070455;28;20198;-61
2023/04/20 08:10:06;;;;;;;11.18;5.55;;;;;;;9.19;61.98;96269.47;2070499;28;20210;-61
2023/04/20 08:11:07;;;;;;;12.85;6.70;;;;;;;8.13;63.39;96273.09;2074722;28;20895;-61
2023/04/20 08:12:09;;;;;;;11.68;6.40;;;;;;;8.20;64.83;96265.88;2072998;28;20674;-61
2023/04/20 08:13:10;;;;;;;10.95;6.95;;;;;;;8.36;63.80;96266.94;2066045;28;20210;-61
2023/04/20 08:14:12;;;;;;;11.02;6.10;;;;;;;8.30;64.41;96265.44;2069331;28;20207;-61
2023/04/20 08:15:14;;;;;;;9.25;5.70;;;;;;;8.44;63.91;96264.00;2068682;28;20708;-61
2023/04/20 08:16:15;;;;;;;13.73;7.45;;;;;;;7.95;64.75;96266.88;2066156;28;20198;-61
2023/04/20 08:17:17;;;;;;;14.00;7.00;;;;;;;7.21;66.67;96265.38;2068415;28;20221;-61
2023/04/20 08:18:19;;;;;;;16.30;7.18;;;;;;;6.94;67.32;96262.06;2067056;28;20554;-61
2023/04/20 08:19:21;;;;;;;23.15;7.80;;;;;;;6.84;68.99;96259.78;2069608;28;20568;-61
2023/04/20 08:20:23;;;;;;;18.30;8.73;;;;;;;6.60;68.45;96266.72;2067804;28;20214;-61
2023/04/20 08:21:25;;;;;;;11.80;6.80;;;;;;;7.06;67.51;96253.81;2069151;28;20248;-60
2023/04/20 08:22:28;;;;;;;13.73;7.45;;;;;;;6.70;67.44;96264.59;2067787;28;20561;-60
2023/04/20 08:23:30;;;;;;;14.38;7.03;;;;;;;7.31;67.40;96266.75;2067231;28;20713;-60
2023/04/20 08:24:32;;;;;;;20.60;7.93;;;;;;;7.94;66.20;96270.41;2067485;28;20202;-61
2023/04/20 08:25:33;;;;;;;13.00;7.50;;;;;;;8.53;65.41;96263.63;2064435;28;20632;-61
2023/04/20 08:26:36;;;;;;;18.58;8.32;;;;;;;8.03;65.71;96259.59;2065485;28;21097;-60
2023/04/20 08:27:37;;;;;;;15.02;7.22;;;;;;;8.31;64.50;96255.88;2067042;28;20229;-61
2023/04/20 08:28:38;;;;;;;9.90;7.10;;;;;;;8.33;63.62;96248.88;2067279;28;20226;-61
2023/04/20 08:29:40;;;;;;;15.05;7.25;;;;;;;8.31;64.97;96251.50;2068849;28;20252;-61
2023/04/20 08:30:42;;;;;;;18.83;7.13;;;;;;;8.55;63.81;96247.97;2065845;28;20264;-61
2023/04/20 08:31:43;;;;;;;13.60;7.40;;;;;;;8.82;63.98;96254.59;2068091;28;20213;-61
2023/04/20 08:32:45;;;;;;;14.98;6.88;;;;;;;9.35;63.43;96252.25;2064738;28;20210;-61
2023/04/20 08:33:46;;;;;;;12.55;7.30;;;;;;;9.59;62.26;96262.44;2065469;28;20257;-61
2023/04/20 08:34:48;;;;;;;15.15;8.13;;;;;;;9.28;61.94;96251.69;2066976;28;20197;-61
2023/04/20 08:35:50;;;;;;;12.38;7.28;;;;;;;9.11;61.86;96256.81;2068884;28;20630;-61
2023/04/20 08:36:52;;;;;;;16.98;6.50;;;;;;;9.59;62.14;96259.84;2064698;28;20206;-61
2023/04/20 08:37:53;;;;;;;13.15;7.05;;;;;;;9.44;61.48;96262.22;2067836;28;20706;-61
2023/04/20 08:39:08;;;;;;;22.25;6.93;;;;;;;8.37;64.10;96257.34;2067673;28;20202;-61
2023/04/20 08:40:09;;;;;;;23.67;7.97;;;;;;;8.67;63.32;96263.03;2067837;28;20738;-61
2023/04/20 08:41:12;;;;;;;28.08;6.55;;;;;;;8.63;63.81;96258.91;2068081;28;20395;-61
2023/04/20 08:42:15;;;;;;;38.95;8.07;;;;;;;8.23;63.69;96261.41;2066810;28;20254;-61
2023/04/20 08:43:17;;;;;;;15.05;8.52;;;;;;;7.78;65.08;96257.16;2064792;28;20202;-60
2023/04/20 08:44:19;;;;;;;21.35;7.85;;;;;;;7.67;66.76;96253.22;2065545;28;20664;-60
2023/04/20 08:45:20;;;;;;;21.30;8.15;;;;;;;8.06;67.34;96261.25;2067294;28;20225;-61
2023/04/20 08:46:23;;;;;;;16.15;8.23;;;;;;;7.87;66.54;96258.53;2067059;28;20588;-61
2023/04/20 08:47:26;;;;;;;19.10;8.02;;;;;;;8.13;65.67;96260.09;2069540;28;20619;-61
2023/04/20 08:48:36;;;;;;;13.68;7.32;;;;;;;7.58;66.65;96261.38;2069432;28;20210;-60
2023/04/20 08:49:38;;;;;;;14.52;7.80;;;;;;;7.83;66.42;96255.22;2067752;28;20202;-61
2023/04/20 08:50:40;;;;;;;13.27;7.70;;;;;;;7.99;66.79;96252.84;2068574;28;20756;-61
2023/04/20 08:51:43;;;;;;;15.35;7.93;;;;;;;7.83;66.32;96260.41;2066654;28;20237;-61
2023/04/20 08:52:45;;;;;;;13.30;7.70;;;;;;;7.59;67.59;96257.03;2067663;28;20679;-61
2023/04/20 08:53:47;;;;;;;9.25;7.15;;;;;;;7.37;67.48;96262.22;2064523;28;20234;-61
2023/04/20 08:54:48;;;;;;;19.88;8.00;;;;;;;7.62;67.90;96262.13;2066528;28;20686;-60
2023/04/20 08:55:58;;;;;;;15.20;7.65;;;;;;;7.69;66.74;96250.56;2067055;28;20195;-61
2023/04/20 08:57:00;;;;;;;13.05;7.18;;;;;;;7.31;68.09;96260.69;2067718;28;20198;-61
2023/04/20 08:58:02;;;;;;;16.98;7.47;;;;;;;7.37;67.72;96257.84;2068828;28;20213;-61
2023/04/20 08:59:11;;;;;;;12.85;6.30;;;;;;;7.41;68.35;96264.63;2068451;28;20244;-61
2023/04/20 09:00:14;;;;;;;24.63;8.15;;;;;;;7.55;68.30;96252.84;2068009;28;20218;-61
2023/04/20 09:01:26;;;;;;;19.10;6.82;;;;;;;7.63;68.05;96262.06;2067410;28;20239;-61
2023/04/20 09:02:47;;;;;;;13.93;6.70;;;;;;;7.65;67.73;96259.38;2068126;28;20296;-61
